sensor_id;sensor_type;location;lat;lon;timestamp;P1;durP1;ratioP1;P2;durP2;ratioP2
73627;SDS011;61923;51.846;5.856;2023-02-11T00:00:22;5.15;;;3.22;;
73627;SDS011;61923;51.846;5.856;2023-02-11T00:02:48;5.80;;;3.22;;
73627;SDS011;61923;51.846;5.856;2023-02-11T00:05:13;9.75;;;3.63;;
73627;SDS011;61923;51.846;5.856;2023-02-11T00:07:39;7.80;;;3.67;;
73627;SDS011;61923;51.846;5.856;2023-02-11T00:10:05;4.45;;;2.85;;
73627;SDS011;61923;51.846;5.856;2023-02-11T00:12:34;7.00;;;3.47;;
73627;SDS011;61923;51.846;5.856;2023-02-11T00:15:01;5.70;;;2.95;;
73627;SDS011;61923;51.846;5.856;2023-02-11T00:17:26;6.20;;;2.83;;
73627;SDS011;61923;51.846;5.856;2023-02-11T00:19:51;6.03;;;2.90;;
73627;SDS011;61923;51.846;5.856;2023-02-11T00:22:19;4.90;;;3.10;;
73627;SDS011;61923;51.846;5.856;2023-02-11T00:24:45;6.28;;;2.90;;
73627;SDS011;61923;51.846;5.856;2023-02-11T00:27:10;8.13;;;3.67;;
73627;SDS011;61923;51.846;5.856;2023-02-11T00:29:36;5.85;;;3.20;;
73627;SDS011;61923;51.846;5.856;2023-02-11T00:32:03;6.65;;;3.20;;
73627;SDS011;61923;51.846;5.856;2023-02-11T00:34:32;6.05;;;3.13;;
73627;SDS011;61923;51.846;5.856;2023-02-11T00:36:58;6.60;;;3.35;;
73627;SDS011;61923;51.846;5.856;2023-02-11T00:39:23;5.40;;;3.28;;
73627;SDS011;61923;51.846;5.856;2023-02-11T00:41:49;7.07;;;3.63;;
73627;SDS011;61923;51.846;5.856;2023-02-11T00:44:15;5.10;;;3.10;;
73627;SDS011;61923;51.846;5.856;2023-02-11T00:46:40;7.10;;;3.08;;
73627;SDS011;61923;51.846;5.856;2023-02-11T00:49:06;6.63;;;2.72;;
73627;SDS011;61923;51.846;5.856;2023-02-11T00:51:31;4.57;;;3.00;;
73627;SDS011;61923;51.846;5.856;2023-02-11T00:53:57;5.07;;;2.85;;
73627;SDS011;61923;51.846;5.856;2023-02-11T00:56:22;5.22;;;3.40;;
73627;SDS011;61923;51.846;5.856;2023-02-11T00:58:48;6.55;;;3.00;;
73627;SDS011;61923;51.846;5.856;2023-02-11T01:01:13;5.00;;;2.57;;
73627;SDS011;61923;51.846;5.856;2023-02-11T01:03:39;7.15;;;3.40;;
73627;SDS011;61923;51.846;5.856;2023-02-11T01:06:05;5.80;;;3.03;;
73627;SDS011;61923;51.846;5.856;2023-02-11T01:08:32;4.72;;;2.92;;
73627;SDS011;61923;51.846;5.856;2023-02-11T01:10:58;6.03;;;3.20;;
73627;SDS011;61923;51.846;5.856;2023-02-11T01:13:26;5.00;;;2.45;;
73627;SDS011;61923;51.846;5.856;2023-02-11T01:15:52;4.80;;;2.65;;
73627;SDS011;61923;51.846;5.856;2023-02-11T01:18:17;4.55;;;2.58;;
73627;SDS011;61923;51.846;5.856;2023-02-11T01:20:43;6.15;;;2.78;;
73627;SDS011;61923;51.846;5.856;2023-02-11T01:23:08;6.53;;;3.00;;
73627;SDS011;61923;51.846;5.856;2023-02-11T01:25:34;5.18;;;2.35;;
73627;SDS011;61923;51.846;5.856;2023-02-11T01:27:59;5.07;;;3.05;;
73627;SDS011;61923;51.846;5.856;2023-02-11T01:30:25;5.03;;;2.97;;
73627;SDS011;61923;51.846;5.856;2023-02-11T01:32:50;5.40;;;2.50;;
73627;SDS011;61923;51.846;5.856;2023-02-11T01:35:16;3.43;;;2.13;;
73627;SDS011;61923;51.846;5.856;2023-02-11T01:37:41;5.05;;;2.80;;
73627;SDS011;61923;51.846;5.856;2023-02-11T01:40:09;6.53;;;2.87;;
73627;SDS011;61923;51.846;5.856;2023-02-11T01:42:38;3.95;;;2.67;;
73627;SDS011;61923;51.846;5.856;2023-02-11T01:48:06;4.15;;;2.65;;
73627;SDS011;61923;51.846;5.856;2023-02-11T01:50:35;4.80;;;2.72;;
73627;SDS011;61923;51.846;5.856;2023-02-11T01:53:02;4.60;;;2.53;;
73627;SDS011;61923;51.846;5.856;2023-02-11T01:55:48;4.88;;;2.30;;
73627;SDS011;61923;51.846;5.856;2023-02-11T01:58:33;4.82;;;2.80;;
73627;SDS011;61923;51.846;5.856;2023-02-11T02:01:03;4.38;;;2.45;;
73627;SDS011;61923;51.846;5.856;2023-02-11T02:03:30;4.10;;;2.40;;
73627;SDS011;61923;51.846;5.856;2023-02-11T02:06:00;4.97;;;2.70;;
73627;SDS011;61923;51.846;5.856;2023-02-11T02:11:16;3.72;;;2.40;;
73627;SDS011;61923;51.846;5.856;2023-02-11T02:13:42;4.68;;;2.33;;
73627;SDS011;61923;51.846;5.856;2023-02-11T02:16:13;4.75;;;2.33;;
73627;SDS011;61923;51.846;5.856;2023-02-11T02:18:45;5.32;;;2.50;;
73627;SDS011;61923;51.846;5.856;2023-02-11T02:37:33;4.45;;;2.60;;
73627;SDS011;61923;51.846;5.856;2023-02-11T02:40:04;4.28;;;2.22;;
73627;SDS011;61923;51.846;5.856;2023-02-11T02:42:36;4.55;;;2.13;;
73627;SDS011;61923;51.846;5.856;2023-02-11T02:45:05;5.38;;;2.22;;
73627;SDS011;61923;51.846;5.856;2023-02-11T02:47:32;3.92;;;2.15;;
73627;SDS011;61923;51.846;5.856;2023-02-11T02:49:57;3.95;;;2.30;;
73627;SDS011;61923;51.846;5.856;2023-02-11T02:52:41;4.65;;;2.30;;
73627;SDS011;61923;51.846;5.856;2023-02-11T03:03:40;4.88;;;2.25;;
73627;SDS011;61923;51.846;5.856;2023-02-11T03:11:46;3.65;;;1.80;;
73627;SDS011;61923;51.846;5.856;2023-02-11T03:14:12;3.38;;;1.80;;
73627;SDS011;61923;51.846;5.856;2023-02-11T03:16:41;3.60;;;2.30;;
73627;SDS011;61923;51.846;5.856;2023-02-11T03:19:14;5.55;;;2.28;;
73627;SDS011;61923;51.846;5.856;2023-02-11T03:21:44;6.30;;;2.90;;
73627;SDS011;61923;51.846;5.856;2023-02-11T03:24:20;5.38;;;2.20;;
73627;SDS011;61923;51.846;5.856;2023-02-11T03:26:53;4.10;;;1.77;;
73627;SDS011;61923;51.846;5.856;2023-02-11T03:34:48;4.38;;;2.20;;
73627;SDS011;61923;51.846;5.856;2023-02-11T03:37:21;3.40;;;1.55;;
73627;SDS011;61923;51.846;5.856;2023-02-11T03:39:53;4.88;;;2.10;;
73627;SDS011;61923;51.846;5.856;2023-02-11T03:42:41;5.10;;;2.13;;
73627;SDS011;61923;51.846;5.856;2023-02-11T03:45:15;3.13;;;1.73;;
73627;SDS011;61923;51.846;5.856;2023-02-11T03:47:55;5.03;;;1.85;;
73627;SDS011;61923;51.846;5.856;2023-02-11T03:50:25;2.55;;;1.50;;
73627;SDS011;61923;51.846;5.856;2023-02-11T03:52:52;2.90;;;1.77;;
73627;SDS011;61923;51.846;5.856;2023-02-11T03:55:20;6.18;;;2.30;;
73627;SDS011;61923;51.846;5.856;2023-02-11T03:57:49;6.90;;;2.25;;
73627;SDS011;61923;51.846;5.856;2023-02-11T04:00:15;5.60;;;2.08;;
73627;SDS011;61923;51.846;5.856;2023-02-11T04:02:41;4.25;;;2.10;;
73627;SDS011;61923;51.846;5.856;2023-02-11T04:05:07;2.92;;;1.70;;
73627;SDS011;61923;51.846;5.856;2023-02-11T04:07:34;3.95;;;2.00;;
73627;SDS011;61923;51.846;5.856;2023-02-11T04:10:00;3.03;;;1.60;;
73627;SDS011;61923;51.846;5.856;2023-02-11T04:12:25;3.72;;;1.77;;
73627;SDS011;61923;51.846;5.856;2023-02-11T04:14:51;6.30;;;1.73;;
73627;SDS011;61923;51.846;5.856;2023-02-11T04:17:16;4.23;;;2.10;;
73627;SDS011;61923;51.846;5.856;2023-02-11T04:19:42;2.58;;;1.52;;
73627;SDS011;61923;51.846;5.856;2023-02-11T04:22:08;4.00;;;1.85;;
73627;SDS011;61923;51.846;5.856;2023-02-11T04:24:34;2.42;;;1.52;;
73627;SDS011;61923;51.846;5.856;2023-02-11T04:27:00;3.83;;;1.95;;
73627;SDS011;61923;51.846;5.856;2023-02-11T04:29:25;4.68;;;2.00;;
73627;SDS011;61923;51.846;5.856;2023-02-11T04:31:52;3.17;;;1.70;;
73627;SDS011;61923;51.846;5.856;2023-02-11T04:36:43;2.73;;;1.83;;
73627;SDS011;61923;51.846;5.856;2023-02-11T04:39:09;2.97;;;1.63;;
73627;SDS011;61923;51.846;5.856;2023-02-11T04:41:34;4.70;;;1.92;;
73627;SDS011;61923;51.846;5.856;2023-02-11T04:43:59;3.97;;;1.98;;
73627;SDS011;61923;51.846;5.856;2023-02-11T04:46:25;4.05;;;1.80;;
73627;SDS011;61923;51.846;5.856;2023-02-11T04:48:50;5.32;;;2.25;;
73627;SDS011;61923;51.846;5.856;2023-02-11T04:51:16;3.20;;;1.77;;
73627;SDS011;61923;51.846;5.856;2023-02-11T04:53:41;4.70;;;1.83;;
73627;SDS011;61923;51.846;5.856;2023-02-11T04:56:07;6.40;;;1.85;;
73627;SDS011;61923;51.846;5.856;2023-02-11T04:58:32;2.80;;;1.83;;
73627;SDS011;61923;51.846;5.856;2023-02-11T05:01:07;3.22;;;1.60;;
73627;SDS011;61923;51.846;5.856;2023-02-11T05:03:34;4.70;;;1.63;;
73627;SDS011;61923;51.846;5.856;2023-02-11T05:06:01;2.58;;;1.45;;
73627;SDS011;61923;51.846;5.856;2023-02-11T05:08:26;3.40;;;1.73;;
73627;SDS011;61923;51.846;5.856;2023-02-11T05:10:52;3.17;;;1.65;;
73627;SDS011;61923;51.846;5.856;2023-02-11T05:13:17;3.83;;;1.40;;
73627;SDS011;61923;51.846;5.856;2023-02-11T05:15:43;3.00;;;1.38;;
73627;SDS011;61923;51.846;5.856;2023-02-11T05:18:08;4.50;;;1.53;;
73627;SDS011;61923;51.846;5.856;2023-02-11T05:20:36;2.80;;;1.60;;
73627;SDS011;61923;51.846;5.856;2023-02-11T05:23:02;4.30;;;1.60;;
73627;SDS011;61923;51.846;5.856;2023-02-11T05:25:27;3.47;;;1.53;;
73627;SDS011;61923;51.846;5.856;2023-02-11T05:27:53;3.77;;;1.50;;
73627;SDS011;61923;51.846;5.856;2023-02-11T05:30:18;2.50;;;1.30;;
73627;SDS011;61923;51.846;5.856;2023-02-11T05:32:43;2.63;;;1.48;;
73627;SDS011;61923;51.846;5.856;2023-02-11T05:35:09;6.10;;;1.73;;
73627;SDS011;61923;51.846;5.856;2023-02-11T05:37:34;4.22;;;1.67;;
73627;SDS011;61923;51.846;5.856;2023-02-11T05:40:00;3.05;;;1.58;;
73627;SDS011;61923;51.846;5.856;2023-02-11T05:42:25;2.30;;;1.23;;
73627;SDS011;61923;51.846;5.856;2023-02-11T05:44:50;4.15;;;1.60;;
73627;SDS011;61923;51.846;5.856;2023-02-11T05:47:16;3.90;;;1.80;;
73627;SDS011;61923;51.846;5.856;2023-02-11T05:49:41;3.50;;;1.33;;
73627;SDS011;61923;51.846;5.856;2023-02-11T05:52:07;3.17;;;1.48;;
73627;SDS011;61923;51.846;5.856;2023-02-11T05:54:32;1.97;;;1.30;;
73627;SDS011;61923;51.846;5.856;2023-02-11T05:56:57;3.33;;;1.60;;
73627;SDS011;61923;51.846;5.856;2023-02-11T05:59:23;4.18;;;1.45;;
73627;SDS011;61923;51.846;5.856;2023-02-11T06:01:48;3.15;;;1.25;;
73627;SDS011;61923;51.846;5.856;2023-02-11T06:04:14;5.95;;;1.80;;
73627;SDS011;61923;51.846;5.856;2023-02-11T06:06:39;3.67;;;1.42;;
73627;SDS011;61923;51.846;5.856;2023-02-11T06:09:04;2.50;;;1.40;;
73627;SDS011;61923;51.846;5.856;2023-02-11T06:11:30;5.10;;;1.42;;
73627;SDS011;61923;51.846;5.856;2023-02-11T06:13:55;3.67;;;1.40;;
73627;SDS011;61923;51.846;5.856;2023-02-11T06:16:21;3.05;;;1.40;;
73627;SDS011;61923;51.846;5.856;2023-02-11T06:18:46;3.57;;;1.60;;
73627;SDS011;61923;51.846;5.856;2023-02-11T06:21:11;3.15;;;1.40;;
73627;SDS011;61923;51.846;5.856;2023-02-11T06:23:37;5.30;;;1.70;;
73627;SDS011;61923;51.846;5.856;2023-02-11T06:26:03;3.50;;;1.23;;
73627;SDS011;61923;51.846;5.856;2023-02-11T06:28:30;3.38;;;1.60;;
73627;SDS011;61923;51.846;5.856;2023-02-11T06:30:56;3.30;;;1.58;;
73627;SDS011;61923;51.846;5.856;2023-02-11T06:33:23;3.92;;;1.52;;
73627;SDS011;61923;51.846;5.856;2023-02-11T06:35:48;2.88;;;1.33;;
73627;SDS011;61923;51.846;5.856;2023-02-11T06:38:14;2.87;;;1.40;;
73627;SDS011;61923;51.846;5.856;2023-02-11T06:40:39;2.95;;;1.65;;
73627;SDS011;61923;51.846;5.856;2023-02-11T06:43:05;2.70;;;1.40;;
73627;SDS011;61923;51.846;5.856;2023-02-11T06:45:30;2.00;;;1.20;;
73627;SDS011;61923;51.846;5.856;2023-02-11T06:47:55;2.83;;;1.58;;
73627;SDS011;61923;51.846;5.856;2023-02-11T06:50:21;3.22;;;1.67;;
73627;SDS011;61923;51.846;5.856;2023-02-11T06:52:46;3.35;;;1.17;;
73627;SDS011;61923;51.846;5.856;2023-02-11T06:55:12;2.35;;;1.30;;
73627;SDS011;61923;51.846;5.856;2023-02-11T06:57:37;2.42;;;1.30;;
73627;SDS011;61923;51.846;5.856;2023-02-11T07:00:03;4.07;;;1.40;;
73627;SDS011;61923;51.846;5.856;2023-02-11T07:02:29;2.90;;;1.38;;
73627;SDS011;61923;51.846;5.856;2023-02-11T07:04:54;2.63;;;1.48;;
73627;SDS011;61923;51.846;5.856;2023-02-11T07:07:19;3.33;;;1.50;;
73627;SDS011;61923;51.846;5.856;2023-02-11T07:09:45;2.28;;;1.10;;
73627;SDS011;61923;51.846;5.856;2023-02-11T07:12:10;2.60;;;1.67;;
73627;SDS011;61923;51.846;5.856;2023-02-11T07:14:36;3.58;;;1.33;;
73627;SDS011;61923;51.846;5.856;2023-02-11T07:17:01;1.52;;;0.90;;
73627;SDS011;61923;51.846;5.856;2023-02-11T07:19:28;2.97;;;1.10;;
73627;SDS011;61923;51.846;5.856;2023-02-11T07:21:54;2.30;;;1.23;;
73627;SDS011;61923;51.846;5.856;2023-02-11T07:24:20;1.98;;;1.15;;
73627;SDS011;61923;51.846;5.856;2023-02-11T07:26:45;2.65;;;1.33;;
73627;SDS011;61923;51.846;5.856;2023-02-11T07:29:10;3.20;;;1.27;;
73627;SDS011;61923;51.846;5.856;2023-02-11T07:31:36;3.15;;;1.23;;
73627;SDS011;61923;51.846;5.856;2023-02-11T07:34:01;1.90;;;1.10;;
73627;SDS011;61923;51.846;5.856;2023-02-11T07:36:27;2.30;;;1.13;;
73627;SDS011;61923;51.846;5.856;2023-02-11T07:38:55;3.63;;;1.27;;
73627;SDS011;61923;51.846;5.856;2023-02-11T07:41:22;3.13;;;1.05;;
73627;SDS011;61923;51.846;5.856;2023-02-11T07:43:49;2.53;;;1.20;;
73627;SDS011;61923;51.846;5.856;2023-02-11T07:46:18;3.67;;;1.40;;
73627;SDS011;61923;51.846;5.856;2023-02-11T07:48:49;3.42;;;1.23;;
73627;SDS011;61923;51.846;5.856;2023-02-11T07:51:18;1.98;;;1.10;;
73627;SDS011;61923;51.846;5.856;2023-02-11T07:53:46;2.55;;;1.15;;
73627;SDS011;61923;51.846;5.856;2023-02-11T07:56:16;2.72;;;1.23;;
73627;SDS011;61923;51.846;5.856;2023-02-11T07:58:43;2.45;;;1.30;;
73627;SDS011;61923;51.846;5.856;2023-02-11T08:01:13;2.35;;;1.20;;
73627;SDS011;61923;51.846;5.856;2023-02-11T08:06:16;1.63;;;1.10;;
73627;SDS011;61923;51.846;5.856;2023-02-11T08:08:44;3.25;;;1.30;;
73627;SDS011;61923;51.846;5.856;2023-02-11T08:11:18;3.22;;;1.63;;
73627;SDS011;61923;51.846;5.856;2023-02-11T08:13:48;1.98;;;1.17;;
73627;SDS011;61923;51.846;5.856;2023-02-11T08:16:24;2.30;;;1.20;;
73627;SDS011;61923;51.846;5.856;2023-02-11T08:18:50;2.47;;;0.90;;
73627;SDS011;61923;51.846;5.856;2023-02-11T08:21:17;4.63;;;1.70;;
73627;SDS011;61923;51.846;5.856;2023-02-11T08:23:44;3.92;;;1.40;;
73627;SDS011;61923;51.846;5.856;2023-02-11T08:26:14;1.88;;;1.00;;
73627;SDS011;61923;51.846;5.856;2023-02-11T08:28:42;2.70;;;1.50;;
73627;SDS011;61923;51.846;5.856;2023-02-11T08:31:13;2.17;;;1.20;;
73627;SDS011;61923;51.846;5.856;2023-02-11T08:33:42;3.55;;;1.58;;
73627;SDS011;61923;51.846;5.856;2023-02-11T08:36:09;3.67;;;1.25;;
73627;SDS011;61923;51.846;5.856;2023-02-11T08:38:36;3.70;;;1.50;;
73627;SDS011;61923;51.846;5.856;2023-02-11T08:41:01;3.70;;;1.45;;
73627;SDS011;61923;51.846;5.856;2023-02-11T08:43:27;2.63;;;1.23;;
73627;SDS011;61923;51.846;5.856;2023-02-11T08:45:53;2.45;;;1.35;;
73627;SDS011;61923;51.846;5.856;2023-02-11T08:48:18;2.78;;;1.48;;
73627;SDS011;61923;51.846;5.856;2023-02-11T08:50:44;3.65;;;1.50;;
73627;SDS011;61923;51.846;5.856;2023-02-11T08:53:09;2.97;;;1.25;;
73627;SDS011;61923;51.846;5.856;2023-02-11T08:55:34;2.78;;;1.40;;
73627;SDS011;61923;51.846;5.856;2023-02-11T08:58:00;3.60;;;1.20;;
73627;SDS011;61923;51.846;5.856;2023-02-11T09:00:25;3.55;;;1.30;;
73627;SDS011;61923;51.846;5.856;2023-02-11T09:02:51;2.70;;;1.20;;
73627;SDS011;61923;51.846;5.856;2023-02-11T09:05:16;2.38;;;1.10;;
73627;SDS011;61923;51.846;5.856;2023-02-11T09:07:42;3.30;;;1.20;;
73627;SDS011;61923;51.846;5.856;2023-02-11T09:10:07;3.03;;;1.20;;
73627;SDS011;61923;51.846;5.856;2023-02-11T09:12:33;3.67;;;1.13;;
73627;SDS011;61923;51.846;5.856;2023-02-11T09:14:58;2.83;;;1.20;;
73627;SDS011;61923;51.846;5.856;2023-02-11T09:17:23;2.97;;;1.17;;
73627;SDS011;61923;51.846;5.856;2023-02-11T09:19:49;2.63;;;1.10;;
73627;SDS011;61923;51.846;5.856;2023-02-11T09:22:14;3.03;;;1.27;;
73627;SDS011;61923;51.846;5.856;2023-02-11T09:24:39;2.03;;;1.10;;
73627;SDS011;61923;51.846;5.856;2023-02-11T09:27:05;2.55;;;1.00;;
73627;SDS011;61923;51.846;5.856;2023-02-11T09:29:30;3.13;;;1.15;;
73627;SDS011;61923;51.846;5.856;2023-02-11T09:31:56;4.93;;;1.27;;
73627;SDS011;61923;51.846;5.856;2023-02-11T09:34:21;3.35;;;1.50;;
73627;SDS011;61923;51.846;5.856;2023-02-11T09:36:47;2.10;;;1.10;;
73627;SDS011;61923;51.846;5.856;2023-02-11T09:39:14;3.47;;;1.40;;
73627;SDS011;61923;51.846;5.856;2023-02-11T09:41:47;3.85;;;1.63;;
73627;SDS011;61923;51.846;5.856;2023-02-11T09:44:30;3.85;;;1.20;;
73627;SDS011;61923;51.846;5.856;2023-02-11T09:49:50;5.18;;;1.60;;
73627;SDS011;61923;51.846;5.856;2023-02-11T09:52:31;4.68;;;1.75;;
73627;SDS011;61923;51.846;5.856;2023-02-11T09:55:04;4.25;;;1.45;;
73627;SDS011;61923;51.846;5.856;2023-02-11T09:57:38;3.42;;;1.50;;
73627;SDS011;61923;51.846;5.856;2023-02-11T10:03:14;2.85;;;1.10;;
73627;SDS011;61923;51.846;5.856;2023-02-11T10:08:13;3.03;;;1.40;;
73627;SDS011;61923;51.846;5.856;2023-02-11T10:10:52;3.60;;;1.55;;
73627;SDS011;61923;51.846;5.856;2023-02-11T10:24:30;4.40;;;1.48;;
73627;SDS011;61923;51.846;5.856;2023-02-11T10:26:58;4.95;;;1.42;;
73627;SDS011;61923;51.846;5.856;2023-02-11T10:29:32;4.93;;;1.63;;
73627;SDS011;61923;51.846;5.856;2023-02-11T10:32:03;3.50;;;1.52;;
73627;SDS011;61923;51.846;5.856;2023-02-11T10:34:38;5.38;;;1.60;;
73627;SDS011;61923;51.846;5.856;2023-02-11T10:37:05;3.17;;;1.45;;
73627;SDS011;61923;51.846;5.856;2023-02-11T10:39:31;4.18;;;1.40;;
73627;SDS011;61923;51.846;5.856;2023-02-11T10:41:58;4.40;;;1.30;;
73627;SDS011;61923;51.846;5.856;2023-02-11T10:44:33;2.70;;;1.40;;
73627;SDS011;61923;51.846;5.856;2023-02-11T10:47:04;3.42;;;1.80;;
73627;SDS011;61923;51.846;5.856;2023-02-11T10:49:39;4.22;;;1.27;;
73627;SDS011;61923;51.846;5.856;2023-02-11T10:55:04;3.85;;;1.35;;
73627;SDS011;61923;51.846;5.856;2023-02-11T11:00:32;3.42;;;1.52;;
73627;SDS011;61923;51.846;5.856;2023-02-11T11:03:06;3.75;;;1.45;;
73627;SDS011;61923;51.846;5.856;2023-02-11T11:05:50;4.07;;;1.40;;
73627;SDS011;61923;51.846;5.856;2023-02-11T11:08:36;3.38;;;1.63;;
73627;SDS011;61923;51.846;5.856;2023-02-11T11:11:13;2.25;;;1.27;;
73627;SDS011;61923;51.846;5.856;2023-02-11T11:16:24;4.18;;;1.50;;
73627;SDS011;61923;51.846;5.856;2023-02-11T11:19:13;3.60;;;1.40;;
73627;SDS011;61923;51.846;5.856;2023-02-11T11:29:12;4.05;;;1.60;;
73627;SDS011;61923;51.846;5.856;2023-02-11T11:31:45;2.60;;;1.40;;
73627;SDS011;61923;51.846;5.856;2023-02-11T11:34:20;2.95;;;1.55;;
73627;SDS011;61923;51.846;5.856;2023-02-11T11:36:46;2.00;;;1.20;;
73627;SDS011;61923;51.846;5.856;2023-02-11T11:39:23;2.38;;;1.40;;
73627;SDS011;61923;51.846;5.856;2023-02-11T11:41:56;2.75;;;1.52;;
73627;SDS011;61923;51.846;5.856;2023-02-11T11:49:36;2.65;;;1.38;;
73627;SDS011;61923;51.846;5.856;2023-02-11T11:57:33;2.88;;;1.50;;
73627;SDS011;61923;51.846;5.856;2023-02-11T12:00:02;3.40;;;1.40;;
73627;SDS011;61923;51.846;5.856;2023-02-11T12:13:55;3.45;;;1.60;;
73627;SDS011;61923;51.846;5.856;2023-02-11T12:19:23;3.78;;;1.50;;
73627;SDS011;61923;51.846;5.856;2023-02-11T12:22:19;2.53;;;1.65;;
73627;SDS011;61923;51.846;5.856;2023-02-11T12:33:54;5.57;;;2.15;;
73627;SDS011;61923;51.846;5.856;2023-02-11T12:42:11;3.70;;;2.20;;
73627;SDS011;61923;51.846;5.856;2023-02-11T12:55:23;4.07;;;2.10;;
73627;SDS011;61923;51.846;5.856;2023-02-11T12:57:51;5.28;;;2.05;;
73627;SDS011;61923;51.846;5.856;2023-02-11T13:00:21;4.30;;;2.05;;
73627;SDS011;61923;51.846;5.856;2023-02-11T13:08:10;3.70;;;1.90;;
73627;SDS011;61923;51.846;5.856;2023-02-11T13:10:40;4.57;;;1.80;;
73627;SDS011;61923;51.846;5.856;2023-02-11T13:13:15;5.05;;;1.98;;
73627;SDS011;61923;51.846;5.856;2023-02-11T13:15:57;4.10;;;1.52;;
73627;SDS011;61923;51.846;5.856;2023-02-11T13:21:28;3.78;;;1.70;;
73627;SDS011;61923;51.846;5.856;2023-02-11T13:24:08;3.83;;;1.95;;
73627;SDS011;61923;51.846;5.856;2023-02-11T13:29:25;3.60;;;1.50;;
73627;SDS011;61923;51.846;5.856;2023-02-11T13:32:08;5.07;;;1.88;;
73627;SDS011;61923;51.846;5.856;2023-02-11T13:40:19;3.90;;;1.90;;
73627;SDS011;61923;51.846;5.856;2023-02-11T13:43:05;4.07;;;1.80;;
73627;SDS011;61923;51.846;5.856;2023-02-11T13:45:45;4.05;;;1.67;;
73627;SDS011;61923;51.846;5.856;2023-02-11T13:48:21;4.82;;;1.77;;
73627;SDS011;61923;51.846;5.856;2023-02-11T13:50:53;5.57;;;1.80;;
73627;SDS011;61923;51.846;5.856;2023-02-11T13:55:48;3.95;;;1.67;;
73627;SDS011;61923;51.846;5.856;2023-02-11T14:00:50;3.30;;;1.70;;
73627;SDS011;61923;51.846;5.856;2023-02-11T14:06:15;3.10;;;1.80;;
73627;SDS011;61923;51.846;5.856;2023-02-11T14:19:56;2.97;;;1.42;;
73627;SDS011;61923;51.846;5.856;2023-02-11T14:22:16;3.80;;;1.77;;
73627;SDS011;61923;51.846;5.856;2023-02-11T14:27:28;3.22;;;1.65;;
73627;SDS011;61923;51.846;5.856;2023-02-11T14:30:18;4.57;;;1.60;;
73627;SDS011;61923;51.846;5.856;2023-02-11T14:33:22;3.20;;;1.45;;
73627;SDS011;61923;51.846;5.856;2023-02-11T14:41:43;1.08;;;0.68;;
73627;SDS011;61923;51.846;5.856;2023-02-11T14:46:46;0.10;;;0.10;;
73627;SDS011;61923;51.846;5.856;2023-02-11T14:51:52;0.55;;;0.32;;
73627;SDS011;61923;51.846;5.856;2023-02-11T14:54:21;0.30;;;0.30;;
73627;SDS011;61923;51.846;5.856;2023-02-11T14:57:11;1.50;;;0.80;;
73627;SDS011;61923;51.846;5.856;2023-02-11T14:59:38;0.25;;;0.17;;
73627;SDS011;61923;51.846;5.856;2023-02-11T15:02:19;0.28;;;0.22;;
73627;SDS011;61923;51.846;5.856;2023-02-11T15:04:47;0.17;;;0.17;;
73627;SDS011;61923;51.846;5.856;2023-02-11T15:07:12;1.48;;;0.73;;
73627;SDS011;61923;51.846;5.856;2023-02-11T15:12:15;1.90;;;1.40;;
73627;SDS011;61923;51.846;5.856;2023-02-11T15:14:50;3.00;;;1.17;;
73627;SDS011;61923;51.846;5.856;2023-02-11T15:17:20;2.70;;;1.40;;
73627;SDS011;61923;51.846;5.856;2023-02-11T15:19:49;2.78;;;1.30;;
73627;SDS011;61923;51.846;5.856;2023-02-11T15:22:18;2.25;;;1.30;;
73627;SDS011;61923;51.846;5.856;2023-02-11T15:27:24;1.67;;;1.17;;
73627;SDS011;61923;51.846;5.856;2023-02-11T15:29:50;3.45;;;1.48;;
73627;SDS011;61923;51.846;5.856;2023-02-11T15:34:41;4.63;;;1.40;;
73627;SDS011;61923;51.846;5.856;2023-02-11T15:37:15;3.17;;;1.60;;
73627;SDS011;61923;51.846;5.856;2023-02-11T15:39:42;2.78;;;1.10;;
73627;SDS011;61923;51.846;5.856;2023-02-11T15:45:19;3.60;;;1.40;;
73627;SDS011;61923;51.846;5.856;2023-02-11T15:47:53;3.95;;;1.52;;
73627;SDS011;61923;51.846;5.856;2023-02-11T15:50:28;3.80;;;1.30;;
73627;SDS011;61923;51.846;5.856;2023-02-11T15:52:57;2.60;;;1.55;;
73627;SDS011;61923;51.846;5.856;2023-02-11T15:55:27;2.38;;;1.10;;
73627;SDS011;61923;51.846;5.856;2023-02-11T15:57:55;4.05;;;1.40;;
73627;SDS011;61923;51.846;5.856;2023-02-11T16:00:23;2.85;;;1.38;;
73627;SDS011;61923;51.846;5.856;2023-02-11T16:02:52;5.28;;;1.40;;
73627;SDS011;61923;51.846;5.856;2023-02-11T16:05:24;3.97;;;1.40;;
73627;SDS011;61923;51.846;5.856;2023-02-11T16:07:54;3.08;;;1.55;;
73627;SDS011;61923;51.846;5.856;2023-02-11T16:18:25;1.90;;;1.15;;
73627;SDS011;61923;51.846;5.856;2023-02-11T16:20:54;2.45;;;1.40;;
73627;SDS011;61923;51.846;5.856;2023-02-11T16:23:21;3.65;;;1.48;;
73627;SDS011;61923;51.846;5.856;2023-02-11T16:26:51;4.07;;;1.25;;
73627;SDS011;61923;51.846;5.856;2023-02-11T16:29:03;2.80;;;1.48;;
73627;SDS011;61923;51.846;5.856;2023-02-11T16:31:34;3.28;;;1.30;;
73627;SDS011;61923;51.846;5.856;2023-02-11T16:34:01;2.55;;;1.35;;
73627;SDS011;61923;51.846;5.856;2023-02-11T16:36:26;3.80;;;1.53;;
73627;SDS011;61923;51.846;5.856;2023-02-11T16:38:52;2.65;;;1.08;;
73627;SDS011;61923;51.846;5.856;2023-02-11T16:41:17;1.77;;;1.20;;
73627;SDS011;61923;51.846;5.856;2023-02-11T16:43:42;2.90;;;1.30;;
73627;SDS011;61923;51.846;5.856;2023-02-11T16:46:09;3.53;;;1.60;;
73627;SDS011;61923;51.846;5.856;2023-02-11T16:48:39;2.83;;;1.13;;
73627;SDS011;61923;51.846;5.856;2023-02-11T16:51:04;2.92;;;1.35;;
73627;SDS011;61923;51.846;5.856;2023-02-11T16:53:33;3.20;;;1.38;;
73627;SDS011;61923;51.846;5.856;2023-02-11T16:55:58;3.50;;;1.10;;
73627;SDS011;61923;51.846;5.856;2023-02-11T16:58:23;2.00;;;0.95;;
73627;SDS011;61923;51.846;5.856;2023-02-11T17:00:49;3.63;;;1.33;;
73627;SDS011;61923;51.846;5.856;2023-02-11T17:05:43;2.47;;;1.10;;
73627;SDS011;61923;51.846;5.856;2023-02-11T17:08:10;3.42;;;1.50;;
73627;SDS011;61923;51.846;5.856;2023-02-11T17:10:35;2.33;;;1.20;;
73627;SDS011;61923;51.846;5.856;2023-02-11T17:13:09;1.92;;;1.17;;
73627;SDS011;61923;51.846;5.856;2023-02-11T17:15:35;2.72;;;1.23;;
73627;SDS011;61923;51.846;5.856;2023-02-11T17:18:00;3.33;;;1.23;;
73627;SDS011;61923;51.846;5.856;2023-02-11T17:20:26;3.20;;;1.02;;
73627;SDS011;61923;51.846;5.856;2023-02-11T17:22:52;4.05;;;1.52;;
73627;SDS011;61923;51.846;5.856;2023-02-11T17:25:17;1.97;;;1.00;;
73627;SDS011;61923;51.846;5.856;2023-02-11T17:27:43;3.67;;;1.20;;
73627;SDS011;61923;51.846;5.856;2023-02-11T17:30:09;2.83;;;1.30;;
73627;SDS011;61923;51.846;5.856;2023-02-11T17:32:35;2.50;;;1.05;;
73627;SDS011;61923;51.846;5.856;2023-02-11T17:35:00;2.60;;;1.15;;
73627;SDS011;61923;51.846;5.856;2023-02-11T17:37:26;2.72;;;1.40;;
73627;SDS011;61923;51.846;5.856;2023-02-11T17:39:52;2.05;;;1.02;;
73627;SDS011;61923;51.846;5.856;2023-02-11T17:42:17;2.80;;;1.50;;
73627;SDS011;61923;51.846;5.856;2023-02-11T17:44:43;2.03;;;1.20;;
73627;SDS011;61923;51.846;5.856;2023-02-11T17:47:08;3.45;;;1.40;;
73627;SDS011;61923;51.846;5.856;2023-02-11T17:49:34;1.95;;;1.20;;
73627;SDS011;61923;51.846;5.856;2023-02-11T17:52:00;2.05;;;1.15;;
73627;SDS011;61923;51.846;5.856;2023-02-11T17:54:25;4.68;;;1.52;;
73627;SDS011;61923;51.846;5.856;2023-02-11T17:56:51;2.53;;;1.30;;
73627;SDS011;61923;51.846;5.856;2023-02-11T17:59:17;3.10;;;1.58;;
73627;SDS011;61923;51.846;5.856;2023-02-11T18:01:43;4.28;;;1.42;;
73627;SDS011;61923;51.846;5.856;2023-02-11T18:04:13;1.98;;;1.25;;
73627;SDS011;61923;51.846;5.856;2023-02-11T18:06:42;2.17;;;1.20;;
73627;SDS011;61923;51.846;5.856;2023-02-11T18:09:08;3.25;;;1.40;;
73627;SDS011;61923;51.846;5.856;2023-02-11T18:11:35;3.13;;;1.45;;
73627;SDS011;61923;51.846;5.856;2023-02-11T18:14:02;2.90;;;1.42;;
73627;SDS011;61923;51.846;5.856;2023-02-11T18:16:31;3.33;;;1.20;;
73627;SDS011;61923;51.846;5.856;2023-02-11T18:18:58;2.83;;;1.45;;